createdAt,value
2019-02-23T00:00:05.522Z,27.87
2019-02-23T00:02:35.744Z,28.10
2019-02-23T00:05:06.465Z,22.83
2019-02-23T00:07:40.233Z,23.87
2019-02-23T00:10:11.234Z,30.00
2019-02-23T00:12:41.843Z,24.87
2019-02-23T00:15:12.208Z,26.30
2019-02-23T00:17:42.389Z,25.37
2019-02-23T00:20:12.827Z,28.00
2019-02-23T00:22:43.224Z,25.60
2019-02-23T00:25:13.469Z,27.90
2019-02-23T00:27:43.673Z,24.87
2019-02-23T00:30:14.032Z,25.93
2019-02-23T00:32:46.671Z,27.47
2019-02-23T00:35:17.066Z,25.90
2019-02-23T00:37:47.568Z,24.23
2019-02-23T00:40:19.002Z,22.47
2019-02-23T00:42:49.342Z,23.00
2019-02-23T00:45:19.823Z,29.67
2019-02-23T00:47:51.533Z,20.67
2019-02-23T00:50:21.694Z,29.30
2019-02-23T00:52:52.610Z,27.93
2019-02-23T00:55:22.877Z,24.60
2019-02-23T00:57:56.900Z,23.80
2019-02-23T01:00:27.307Z,21.30
2019-02-23T01:02:57.717Z,22.10
2019-02-23T01:05:28.112Z,21.93
2019-02-23T01:07:59.073Z,24.37
2019-02-23T01:10:29.381Z,23.87
2019-02-23T01:13:00.124Z,25.47
2019-02-23T01:15:30.574Z,26.40
2019-02-23T01:18:00.745Z,20.77
2019-02-23T01:20:31.173Z,26.47
2019-02-23T01:23:01.832Z,26.63
2019-02-23T01:25:32.196Z,25.73
2019-02-23T01:28:02.799Z,26.60
2019-02-23T01:30:33.058Z,25.23
2019-02-23T01:33:03.373Z,22.17
2019-02-23T01:35:33.778Z,25.73
2019-02-23T01:38:04.259Z,21.90
2019-02-23T01:40:34.416Z,22.83
2019-02-23T01:43:04.748Z,26.50
2019-02-23T01:45:42.311Z,24.47
2019-02-23T01:48:08.891Z,26.80
2019-02-23T01:50:39.298Z,24.60
2019-02-23T01:53:10.221Z,23.73
2019-02-23T01:55:41.162Z,23.23
2019-02-23T01:58:11.562Z,26.37
2019-02-23T02:00:41.895Z,21.07
2019-02-23T02:03:12.617Z,23.37
2019-02-23T02:05:42.862Z,26.17
2019-02-23T02:08:13.305Z,20.40
2019-02-23T02:10:45.642Z,24.10
2019-02-23T02:13:16.549Z,22.10
2019-02-23T02:15:47.118Z,23.80
2019-02-23T02:18:17.960Z,25.57
2019-02-23T02:20:48.293Z,24.57
2019-02-23T02:23:18.598Z,21.77
2019-02-23T02:25:48.785Z,23.80
2019-02-23T02:28:19.468Z,25.03
2019-02-23T02:30:49.612Z,24.47
2019-02-23T02:33:20.340Z,23.77
2019-02-23T02:35:50.661Z,22.03
2019-02-23T02:38:21.195Z,22.23
2019-02-23T02:40:51.739Z,22.67
2019-02-23T02:43:22.177Z,29.73
2019-02-23T02:45:52.520Z,21.50
2019-02-23T02:48:22.822Z,28.50
2019-02-23T02:50:53.361Z,28.87
2019-02-23T02:53:23.938Z,27.00
2019-02-23T02:55:54.161Z,31.60
2019-02-23T02:58:24.428Z,26.23
2019-02-23T03:00:54.874Z,27.10
2019-02-23T03:03:25.463Z,25.63
2019-02-23T03:05:55.767Z,20.77
2019-02-23T03:08:26.112Z,28.43
2019-02-23T03:10:56.939Z,22.40
2019-02-23T03:13:27.199Z,24.43
2019-02-23T03:15:57.610Z,24.77
2019-02-23T03:18:28.644Z,21.83
2019-02-23T03:20:59.266Z,24.63
2019-02-23T03:23:29.857Z,23.83
2019-02-23T03:26:00.718Z,18.70
2019-02-23T03:28:33.485Z,21.80
2019-02-23T03:31:03.354Z,20.43
2019-02-23T03:33:33.750Z,25.00
2019-02-23T03:36:04.032Z,21.30
2019-02-23T03:38:34.360Z,25.00
2019-02-23T03:41:04.969Z,26.43
2019-02-23T03:43:35.732Z,19.47
2019-02-23T03:46:06.073Z,24.83
2019-02-23T03:48:36.390Z,21.47
2019-02-23T03:51:06.550Z,24.57
2019-02-23T03:53:37.333Z,22.87
2019-02-23T03:56:08.061Z,24.87
2019-02-23T03:58:38.452Z,19.80
2019-02-23T04:01:08.726Z,24.40
2019-02-23T04:03:39.358Z,17.93
2019-02-23T04:06:10.126Z,23.03
2019-02-23T04:08:40.475Z,22.30
2019-02-23T04:11:10.748Z,21.93
2019-02-23T04:13:40.850Z,20.27
2019-02-23T04:16:11.019Z,23.23
2019-02-23T04:18:41.560Z,21.33
2019-02-23T04:21:11.779Z,21.70
2019-02-23T04:23:42.086Z,18.37
2019-02-23T04:26:12.453Z,19.53
2019-02-23T04:28:42.873Z,21.03
2019-02-23T04:31:13.511Z,22.80
2019-02-23T04:33:43.944Z,19.77
2019-02-23T04:36:14.328Z,27.40
2019-02-23T04:38:44.906Z,23.70
2019-02-23T04:41:15.419Z,20.03
2019-02-23T04:43:46.337Z,20.87
2019-02-23T04:46:16.579Z,21.93
2019-02-23T04:48:47.176Z,20.30
2019-02-23T04:51:17.397Z,21.67
2019-02-23T04:53:47.499Z,20.03
2019-02-23T04:56:18.057Z,20.47
2019-02-23T04:58:50.363Z,22.27
2019-02-23T05:01:20.877Z,22.73
2019-02-23T05:03:51.285Z,22.33
2019-02-23T05:06:21.854Z,32.57
2019-02-23T05:08:52.577Z,21.30
2019-02-23T05:11:23.425Z,20.77
2019-02-23T05:13:53.923Z,20.47
2019-02-23T05:16:24.756Z,18.27
2019-02-23T05:18:55.578Z,17.20
2019-02-23T05:21:27.000Z,21.97
2019-02-23T05:23:58.269Z,21.17
2019-02-23T05:26:30.069Z,19.50
2019-02-23T05:29:00.765Z,20.07
2019-02-23T05:31:32.444Z,18.40
2019-02-23T05:34:02.696Z,19.60
2019-02-23T05:36:33.186Z,22.40
2019-02-23T05:39:04.048Z,18.20
2019-02-23T05:41:34.559Z,19.57
2019-02-23T05:44:05.501Z,17.97
2019-02-23T05:46:36.411Z,20.80
2019-02-23T05:49:06.897Z,17.67
2019-02-23T05:51:38.939Z,18.53
2019-02-23T05:54:09.811Z,19.07
2019-02-23T05:56:40.069Z,20.23
2019-02-23T05:59:10.826Z,16.90
2019-02-23T06:01:41.257Z,21.90
2019-02-23T06:04:11.463Z,21.37
2019-02-23T06:06:41.768Z,18.17
2019-02-23T06:09:12.586Z,20.63
2019-02-23T06:11:49.132Z,21.67
2019-02-23T06:14:20.323Z,21.70
2019-02-23T06:16:51.110Z,21.00
2019-02-23T06:19:21.526Z,21.20
2019-02-23T06:21:54.149Z,22.53
2019-02-23T06:24:23.705Z,21.13
2019-02-23T06:26:54.712Z,20.53
2019-02-23T06:29:24.968Z,18.23
2019-02-23T06:32:03.922Z,20.40
2019-02-23T06:34:35.324Z,20.57
2019-02-23T06:37:10.792Z,19.50
2019-02-23T06:39:43.495Z,22.47
2019-02-23T06:42:18.476Z,22.30
2019-02-23T06:44:52.817Z,19.60
2019-02-23T06:47:23.269Z,20.03
2019-02-23T06:49:54.041Z,22.23
2019-02-23T06:52:24.355Z,27.63
2019-02-23T06:54:54.836Z,23.90
2019-02-23T06:57:28.082Z,21.40
2019-02-23T06:59:58.753Z,22.37
2019-02-23T07:02:29.613Z,21.50
2019-02-23T07:04:59.982Z,24.27
2019-02-23T07:07:31.112Z,19.93
2019-02-23T07:10:01.978Z,25.93
2019-02-23T07:12:32.293Z,27.67
2019-02-23T07:15:03.121Z,23.97
2019-02-23T07:17:33.429Z,22.93
2019-02-23T07:20:03.750Z,26.20
2019-02-23T07:22:34.159Z,22.33
2019-02-23T07:25:05.157Z,28.00
2019-02-23T07:27:35.657Z,26.77
2019-02-23T07:30:06.833Z,22.03
2019-02-23T07:32:37.190Z,23.40
2019-02-23T07:35:07.784Z,29.13
2019-02-23T07:37:38.609Z,28.17
2019-02-23T07:40:09.775Z,33.23
2019-02-23T07:42:40.003Z,22.00
2019-02-23T07:45:10.549Z,27.90
2019-02-23T07:47:44.027Z,25.30
2019-02-23T07:50:20.549Z,27.70
2019-02-23T07:52:52.825Z,27.00
2019-02-23T07:55:23.378Z,24.43
2019-02-23T07:57:53.559Z,24.13
2019-02-23T08:00:24.958Z,24.77
2019-02-23T08:02:55.662Z,30.97
2019-02-23T08:05:28.742Z,27.77
2019-02-23T08:08:03.440Z,29.87
2019-02-23T08:10:33.751Z,24.83
2019-02-23T08:13:06.771Z,25.40
2019-02-23T08:15:39.262Z,25.23
2019-02-23T08:18:09.662Z,28.90
2019-02-23T08:20:39.800Z,32.53
2019-02-23T08:23:10.165Z,29.60
2019-02-23T08:25:44.913Z,24.30
2019-02-23T08:28:20.703Z,24.17
2019-02-23T08:30:51.425Z,26.00
2019-02-23T08:33:21.561Z,27.50
2019-02-23T08:35:55.267Z,28.90
2019-02-23T08:38:25.787Z,26.50
2019-02-23T08:40:56.699Z,30.33
2019-02-23T08:43:28.229Z,32.87
2019-02-23T08:46:03.242Z,32.80
2019-02-23T08:48:36.174Z,35.50
2019-02-23T08:51:08.458Z,27.97
2019-02-23T08:53:43.478Z,26.37
2019-02-23T08:56:18.046Z,24.57
2019-02-23T08:58:49.093Z,28.50
2019-02-23T09:01:22.065Z,30.30
2019-02-23T09:03:53.501Z,28.27
2019-02-23T09:06:23.852Z,27.90
2019-02-23T09:08:54.230Z,29.40
2019-02-23T09:11:25.416Z,29.53
2019-02-23T09:13:57.134Z,29.83
2019-02-23T09:16:28.255Z,26.40
2019-02-23T09:19:00.249Z,29.73
2019-02-23T09:21:32.569Z,26.60
2019-02-23T09:24:05.905Z,32.20
2019-02-23T09:26:37.570Z,30.97
2019-02-23T09:29:08.591Z,28.67
2019-02-23T09:31:39.935Z,28.60
2019-02-23T09:34:10.962Z,29.27
2019-02-23T09:36:42.595Z,28.83
2019-02-23T09:39:13.232Z,34.20
2019-02-23T09:41:43.577Z,28.47
2019-02-23T09:44:13.906Z,27.43
2019-02-23T09:46:44.331Z,30.20
2019-02-23T09:49:14.753Z,30.80
2019-02-23T09:51:44.893Z,30.90
2019-02-23T09:54:15.512Z,29.90
2019-02-23T09:56:45.903Z,29.53
2019-02-23T09:59:16.297Z,27.50
2019-02-23T10:01:46.455Z,31.33
2019-02-23T10:04:20.285Z,28.37
2019-02-23T10:06:50.607Z,30.20
2019-02-23T10:09:20.879Z,29.23
2019-02-23T10:11:51.278Z,29.40
2019-02-23T10:14:21.975Z,31.87
2019-02-23T10:16:53.062Z,26.80
2019-02-23T10:19:27.583Z,29.10
2019-02-23T10:22:00.909Z,29.37
2019-02-23T10:24:35.786Z,28.70
2019-02-23T10:27:06.124Z,25.40
2019-02-23T10:29:37.544Z,26.20
2019-02-23T10:32:10.645Z,28.30
2019-02-23T10:34:48.449Z,29.53
2019-02-23T10:37:22.159Z,31.20
2019-02-23T10:39:54.653Z,29.83
2019-02-23T10:42:27.583Z,29.47
2019-02-23T10:45:00.421Z,26.93
2019-02-23T10:47:30.931Z,28.27
2019-02-23T10:50:07.589Z,27.43
2019-02-23T10:52:38.061Z,25.20
2019-02-23T10:55:09.733Z,28.00
2019-02-23T10:57:43.217Z,29.47
2019-02-23T11:00:19.539Z,31.80
2019-02-23T11:02:55.009Z,27.73
2019-02-23T11:05:26.138Z,26.83
2019-02-23T11:07:58.753Z,25.80
2019-02-23T11:10:30.182Z,24.23
2019-02-23T11:13:01.056Z,28.90
2019-02-23T11:15:31.504Z,24.97
2019-02-23T11:18:02.983Z,31.77
2019-02-23T11:20:34.377Z,25.97
2019-02-23T11:23:04.673Z,31.60
2019-02-23T11:25:35.254Z,31.63
2019-02-23T11:28:05.774Z,29.30
2019-02-23T11:30:35.967Z,27.87
2019-02-23T11:33:06.808Z,27.20
2019-02-23T11:35:38.253Z,29.00
2019-02-23T11:38:08.572Z,28.77
2019-02-23T11:40:42.581Z,27.03
2019-02-23T11:43:13.600Z,28.80
2019-02-23T11:45:46.177Z,29.23
2019-02-23T11:48:16.498Z,26.67
2019-02-23T11:50:47.341Z,30.57
2019-02-23T11:53:17.573Z,27.80
2019-02-23T11:55:48.270Z,28.43
2019-02-23T11:58:22.150Z,31.07
2019-02-23T12:00:54.680Z,30.43
2019-02-23T12:03:25.346Z,31.17
2019-02-23T12:05:55.585Z,28.17
2019-02-23T12:08:26.624Z,30.43
2019-02-23T12:10:57.134Z,27.73
2019-02-23T12:13:27.269Z,29.87
2019-02-23T12:16:02.066Z,30.30
2019-02-23T12:18:32.389Z,27.73
2019-02-23T12:21:02.813Z,32.77
2019-02-23T12:23:33.240Z,26.93
2019-02-23T12:26:03.628Z,32.07
2019-02-23T12:28:38.957Z,30.27
2019-02-23T12:31:09.335Z,32.37
2019-02-23T12:33:39.634Z,29.20
2019-02-23T12:36:12.736Z,31.30
2019-02-23T12:38:44.573Z,31.97
2019-02-23T12:43:36.691Z,32.93
2019-02-23T12:46:07.034Z,27.27
2019-02-23T12:48:37.693Z,34.27
2019-02-23T12:51:08.344Z,29.60
2019-02-23T12:53:38.614Z,32.13
2019-02-23T12:56:09.036Z,30.93
2019-02-23T12:58:42.426Z,31.63
2019-02-23T13:01:13.297Z,34.17
2019-02-23T13:03:44.280Z,34.57
2019-02-23T13:06:14.845Z,30.13
2019-02-23T13:09:34.495Z,34.90
2019-02-23T13:12:32.235Z,29.30
2019-02-23T13:15:31.953Z,27.97
2019-02-23T13:18:48.857Z,28.10
2019-02-23T13:21:27.192Z,32.70
2019-02-23T13:25:03.029Z,32.87
2019-02-23T13:28:26.099Z,29.60
2019-02-23T13:31:24.774Z,32.50
2019-02-23T13:34:29.437Z,30.90
2019-02-23T13:37:34.048Z,35.90
2019-02-23T13:40:42.790Z,31.03
2019-02-23T13:43:55.550Z,30.17
2019-02-23T13:47:00.129Z,31.30
2019-02-23T13:49:57.719Z,29.83
2019-02-23T13:52:50.494Z,29.30
2019-02-23T13:55:45.126Z,28.40
2019-02-23T13:58:47.630Z,33.13
2019-02-23T14:02:04.355Z,27.00
2019-02-23T14:05:23.833Z,25.73
2019-02-23T14:08:53.082Z,28.67
2019-02-23T14:12:08.612Z,29.67
2019-02-23T14:15:33.840Z,29.53
2019-02-23T14:18:33.445Z,25.57
2019-02-23T14:21:47.422Z,27.07
2019-02-23T14:24:54.895Z,24.43
2019-02-23T14:28:12.416Z,24.93
2019-02-23T14:31:14.672Z,28.37
2019-02-23T14:34:27.887Z,25.30
2019-02-23T14:37:35.198Z,25.50
2019-02-23T14:40:49.940Z,24.50
2019-02-23T14:43:31.564Z,26.97
2019-02-23T14:46:24.972Z,28.87
2019-02-23T14:49:50.008Z,25.60
2019-02-23T14:53:09.145Z,25.90
2019-02-23T14:56:18.632Z,26.07
2019-02-23T14:59:26.342Z,22.70
2019-02-23T15:02:29.871Z,24.23
2019-02-23T15:05:54.640Z,25.10
2019-02-23T15:09:24.091Z,22.63
2019-02-23T15:12:31.018Z,25.53
2019-02-23T15:15:42.282Z,21.10
2019-02-23T15:18:46.712Z,21.07
2019-02-23T15:21:39.289Z,25.43
2019-02-23T15:25:00.579Z,22.53
2019-02-23T15:28:30.312Z,23.73
2019-02-23T15:31:05.563Z,24.57
2019-02-23T15:34:37.272Z,27.03
2019-02-23T15:37:40.906Z,25.67
2019-02-23T15:40:54.823Z,25.90
2019-02-23T15:43:50.268Z,21.60
2019-02-23T15:46:43.039Z,23.10
2019-02-23T15:49:37.179Z,27.90
2019-02-23T15:52:08.412Z,26.63
2019-02-23T15:54:38.807Z,28.17
2019-02-23T15:57:16.056Z,31.30
2019-02-23T15:59:46.529Z,24.40
2019-02-23T16:02:17.258Z,25.63
2019-02-23T16:04:47.683Z,19.80
2019-02-23T16:07:18.781Z,22.63
2019-02-23T16:09:52.349Z,20.77
2019-02-23T16:12:22.789Z,26.63
2019-02-23T16:14:53.675Z,23.00
2019-02-23T16:17:24.445Z,21.03
2019-02-23T16:19:54.973Z,23.30
2019-02-23T16:22:27.382Z,22.87
2019-02-23T16:24:58.143Z,23.33
2019-02-23T16:27:28.685Z,23.33
2019-02-23T16:29:59.532Z,24.33
2019-02-23T16:32:29.760Z,25.10
2019-02-23T16:35:01.559Z,20.90
2019-02-23T16:37:38.668Z,18.93
2019-02-23T16:40:16.715Z,25.07
2019-02-23T16:42:50.844Z,28.13
2019-02-23T16:45:21.426Z,23.47
2019-02-23T16:47:52.376Z,20.10
2019-02-23T16:50:30.343Z,31.97
2019-02-23T16:53:30.086Z,20.03
2019-02-23T16:56:00.616Z,23.67
2019-02-23T16:58:31.352Z,28.30
2019-02-23T17:01:04.314Z,28.13
2019-02-23T17:03:33.773Z,22.30
2019-02-23T17:06:03.981Z,24.83
2019-02-23T17:08:35.807Z,21.90
2019-02-23T17:11:16.102Z,23.40
2019-02-23T17:13:48.334Z,23.10
2019-02-23T17:16:21.111Z,21.80
2019-02-23T17:18:54.662Z,20.37
2019-02-23T17:21:25.797Z,23.60
2019-02-23T17:23:56.550Z,24.30
2019-02-23T17:26:27.631Z,22.37
2019-02-23T17:29:02.600Z,26.30
2019-02-23T17:31:33.470Z,22.90
2019-02-23T17:34:04.302Z,20.77
2019-02-23T17:36:35.186Z,32.93
2019-02-23T17:39:06.182Z,23.87
2019-02-23T17:41:36.389Z,27.27
2019-02-23T17:44:07.093Z,24.50
2019-02-23T17:46:38.041Z,24.47
2019-02-23T17:49:08.477Z,24.47
2019-02-23T17:51:39.000Z,26.90
2019-02-23T17:54:09.664Z,28.63
2019-02-23T17:56:40.092Z,29.57
2019-02-23T17:59:10.946Z,30.17
2019-02-23T18:01:42.751Z,27.20
2019-02-23T18:04:13.250Z,27.00
2019-02-23T18:06:44.929Z,27.50
2019-02-23T18:09:15.528Z,35.03
2019-02-23T18:11:48.849Z,32.57
2019-02-23T18:14:19.435Z,35.10
2019-02-23T18:16:49.835Z,31.00
2019-02-23T18:19:21.940Z,29.07
2019-02-23T18:21:52.494Z,28.73
2019-02-23T18:24:23.303Z,34.73
2019-02-23T18:26:54.234Z,25.00
2019-02-23T18:29:24.926Z,25.23
2019-02-23T18:31:56.003Z,25.60
2019-02-23T18:34:26.427Z,27.53
2019-02-23T18:36:59.546Z,28.07
2019-02-23T18:39:30.884Z,36.33
2019-02-23T18:42:04.434Z,27.83
2019-02-23T18:44:38.302Z,28.27
2019-02-23T18:47:09.217Z,32.60
2019-02-23T18:49:39.521Z,32.83
2019-02-23T18:52:16.918Z,30.27
2019-02-23T18:54:47.385Z,29.90
2019-02-23T18:57:33.688Z,30.10
2019-02-23T19:00:04.498Z,29.20
2019-02-23T19:02:34.885Z,29.00
2019-02-23T19:05:08.311Z,29.27
2019-02-23T19:10:05.305Z,29.60
2019-02-23T19:12:35.605Z,33.13
2019-02-23T19:15:06.654Z,30.90
2019-02-23T19:17:37.030Z,30.30
2019-02-23T19:20:12.344Z,30.60
2019-02-23T19:22:45.943Z,27.20
2019-02-23T19:25:16.261Z,28.90
2019-02-23T19:27:52.121Z,30.57
2019-02-23T19:30:25.245Z,28.90
2019-02-23T19:32:58.374Z,26.20
2019-02-23T19:35:29.343Z,36.80
2019-02-23T19:37:59.793Z,28.33
2019-02-23T19:40:30.025Z,33.57
2019-02-23T19:43:00.877Z,29.73
2019-02-23T19:45:31.118Z,31.37
2019-02-23T19:48:03.646Z,28.20
2019-02-23T19:50:40.717Z,27.13
2019-02-23T19:53:13.470Z,32.83
2019-02-23T19:55:45.845Z,35.70
2019-02-23T19:58:18.054Z,27.80
2019-02-23T20:00:51.376Z,27.90
2019-02-23T20:03:24.766Z,28.87
2019-02-23T20:05:58.093Z,31.10
2019-02-23T20:08:28.426Z,29.67
2019-02-23T20:10:58.665Z,27.73
2019-02-23T20:13:29.403Z,29.60
2019-02-23T20:16:01.201Z,30.17
2019-02-23T20:18:32.863Z,28.53
2019-02-23T20:21:03.105Z,30.17
2019-02-23T20:23:33.874Z,33.57
2019-02-23T20:26:04.284Z,32.60
2019-02-23T20:28:34.618Z,39.73
2019-02-23T20:31:06.722Z,37.50
2019-02-23T20:33:37.371Z,67.53
2019-02-23T20:36:07.470Z,62.00
2019-02-23T20:38:39.541Z,57.60
2019-02-23T20:41:14.881Z,50.43
2019-02-23T20:43:46.682Z,62.20
2019-02-23T20:46:19.784Z,55.03
2019-02-23T20:48:50.420Z,60.60
2019-02-23T20:51:21.135Z,61.03
2019-02-23T20:53:51.550Z,58.67
2019-02-23T20:56:27.243Z,55.30
2019-02-23T20:58:57.780Z,52.17
2019-02-23T21:01:28.625Z,54.50
2019-02-23T21:03:59.069Z,49.33
2019-02-23T21:06:31.365Z,44.57
2019-02-23T21:09:02.294Z,49.73
2019-02-23T21:11:32.934Z,42.03
2019-02-23T21:14:04.498Z,44.50
2019-02-23T21:16:39.043Z,43.83
2019-02-23T21:19:09.361Z,41.17
2019-02-23T21:21:39.833Z,33.73
2019-02-23T21:24:10.477Z,36.30
2019-02-23T21:26:40.782Z,33.77
2019-02-23T21:29:11.225Z,29.97
2019-02-23T21:31:44.829Z,34.60
2019-02-23T21:34:15.394Z,33.17
2019-02-23T21:36:45.716Z,32.57
2019-02-23T21:39:19.174Z,28.17
2019-02-23T21:41:49.565Z,31.93
2019-02-23T21:44:19.962Z,31.57
2019-02-23T21:46:50.709Z,28.77
2019-02-23T21:49:24.432Z,31.40
2019-02-23T21:51:54.838Z,27.00
2019-02-23T21:54:25.022Z,27.30
2019-02-23T21:56:58.148Z,26.60
2019-02-23T21:59:30.829Z,28.57
2019-02-23T22:02:02.369Z,34.23
2019-02-23T22:04:32.882Z,30.83
2019-02-23T22:07:03.328Z,31.20
2019-02-23T22:09:33.503Z,34.70
2019-02-23T22:12:03.974Z,32.20
2019-02-23T22:14:34.305Z,31.27
2019-02-23T22:17:05.035Z,31.07
2019-02-23T22:19:39.929Z,32.77
2019-02-23T22:22:10.226Z,30.60
2019-02-23T22:24:43.125Z,33.13
2019-02-23T22:27:15.794Z,30.00
2019-02-23T22:29:46.113Z,35.53
2019-02-23T22:32:17.330Z,26.00
2019-02-23T22:34:47.634Z,25.47
2019-02-23T22:37:19.770Z,26.40
2019-02-23T22:39:50.071Z,29.17
2019-02-23T22:42:20.847Z,31.50
2019-02-23T22:44:54.293Z,25.10
2019-02-23T22:47:27.419Z,25.57
2019-02-23T22:49:58.069Z,29.00
2019-02-23T22:52:28.358Z,27.53
2019-02-23T22:54:59.061Z,26.90
2019-02-23T22:57:30.042Z,27.03
2019-02-23T23:00:00.314Z,24.73
2019-02-23T23:02:30.996Z,28.40
2019-02-23T23:05:01.882Z,27.60
2019-02-23T23:07:32.066Z,26.23
2019-02-23T23:10:02.414Z,28.67
2019-02-23T23:12:32.797Z,24.90
2019-02-23T23:15:03.071Z,28.93
2019-02-23T23:17:35.601Z,21.53
2019-02-23T23:20:10.507Z,24.10
2019-02-23T23:22:42.063Z,22.00
2019-02-23T23:25:12.420Z,24.97
2019-02-23T23:27:49.139Z,30.63
2019-02-23T23:30:14.882Z,24.13
2019-02-23T23:32:48.221Z,23.70
2019-02-23T23:35:19.798Z,25.33
2019-02-23T23:37:51.695Z,26.40
2019-02-23T23:40:23.921Z,24.27
2019-02-23T23:42:58.090Z,26.10
2019-02-23T23:45:26.607Z,23.67
2019-02-23T23:47:56.922Z,29.30
2019-02-23T23:50:27.290Z,29.73
2019-02-23T23:52:57.789Z,31.63
2019-02-23T23:55:28.260Z,25.70
2019-02-23T23:57:58.794Z,27.83
